Nearby METAR Reports

 

KOXC - Oxford/Waterbury, Connecticut, USA
Distance from station: SE 8mi, 12km
Updated: Tue, 18-Feb-2020 8:51am EST
Overcast
Overcast
 Wind from E
Wind: E 10 mph , 17 km/h
Temperature: 32°F , 0°C
Wind Chill: 24°F , -4°C
Dew Point: 23°F , -5°C
Humidity: 69%
Barometer: 30.33 inHg , 1027.1 hPa
Clouds: Overcast
Visibility: 10 miles , 16 km
Cloud details: Overcast 1900 ft
2020/02/18 13:51 KOXC 181351Z 10009KT 10SM OVC019 00/M05 A3033 RMK AO2 SLP292 T00001050
KDXR - Danbury, Connecticut, USA
Distance from station: SW 19mi, 30km
Updated: Tue, 18-Feb-2020 8:53am EST
Overcast
Overcast
 Wind from E
Wind: E 7 mph , 11 km/h
Temperature: 34°F , 1°C
Wind Chill: 28°F , -2°C
Dew Point: 25°F , -4°C
Humidity: 70%
Barometer: 30.33 inHg , 1027.1 hPa
Clouds: Overcast
Visibility: 10 miles , 16 km
Cloud details: Overcast 2000 ft
2020/02/18 13:53 KDXR 181353Z 10006KT 10SM OVC020 01/M04 A3033 RMK AO2 SLP275 T00111039
 
KMMK - Meriden, Connecticut, USA
Distance from station: E 20mi, 33km
Updated: Tue, 18-Feb-2020 9:13am EST
Overcast
Overcast
 Wind from E
Wind: E 3 mph , 6 km/h
Temperature: 36°F , 2°C
Dew Point: 25°F , -4°C
Humidity: 65%
Barometer: 30.36 inHg , 1028.1 hPa
Clouds: Overcast
Visibility: 10 miles , 16 km
Cloud details: Mostly cloudy 2600 ft
Overcast 10000 ft
2020/02/18 14:13 KMMK 181413Z AUTO 09003KT 10SM BKN026 OVC100 02/M04 A3036 RMK AO2 T00221044
KBDR - Bridgeport, Connecticut, USA
Distance from station: S 27mi, 44km
Updated: Tue, 18-Feb-2020 9:06am EST
Overcast
Overcast
 Wind from ENE
Wind: ENE 14 mph , 22 km/h
Temperature: 37°F , 3°C
Wind Chill: 28°F , -2°C
Dew Point: 28°F , -2°C
Humidity: 70%
Barometer: 30.35 inHg , 1027.8 hPa
Clouds: Overcast
Visibility: 10 miles , 16 km
Cloud details: Partly cloudy 2300 ft
Mostly cloudy 6000 ft
Overcast 10000 ft
2020/02/18 14:06 KBDR 181406Z 06012KT 10SM SCT023 BKN060 OVC100 03/M02 A3035 RMK AO2 T00331017
 
KHVN - New Haven/Tweed, Connecticut, USA
Distance from station: SE 27mi, 44km
Updated: Tue, 18-Feb-2020 8:53am EST
Overcast
Overcast
 Wind from E
Wind: E 6 mph , 9 km/h
Temperature: 39°F , 4°C
Wind Chill: 35°F , 2°C
Dew Point: 28°F , -2°C
Humidity: 65%
Barometer: 30.35 inHg , 1027.8 hPa
Clouds: Overcast
Visibility: 10 miles , 16 km
Cloud details: Partly cloudy 2600 ft
Overcast 9000 ft
2020/02/18 13:53 KHVN 181353Z 08005KT 10SM SCT026 OVC090 04/M02 A3035 RMK AO2 SLP278 T00441022
KHFD - Hartford/Brainar, Connecticut, USA
Distance from station: ENE 32mi, 52km
Updated: Tue, 18-Feb-2020 8:53am EST
Overcast
Overcast
 Wind from E
Wind: E 5 mph , 7 km/h
Temperature: 36°F , 2°C
Wind Chill: 32°F , 0°C
Dew Point: 21°F , -6°C
Humidity: 56%
Barometer: 30.39 inHg , 1029.1 hPa
Clouds: Overcast
Visibility: 10 miles , 16 km
Cloud details: Few Clouds 2800 ft
Overcast 9500 ft
2020/02/18 13:53 KHFD 181353Z 08004KT 10SM FEW028 OVC095 02/M06 A3039 RMK AO2 SLP289 T00171061
 
KPOU - Poughkeepsie, New York, USA
Distance from station: W 35mi, 56km
Updated: Tue, 18-Feb-2020 8:53am EST
Overcast
Overcast
 Wind from ESE
Wind: ESE 10 mph , 17 km/h, Gust: 16 mph , 26 km/h
Temperature: 36°F , 2°C
Wind Chill: 29°F , -2°C
Dew Point: 23°F , -5°C
Humidity: 60%
Barometer: 30.31 inHg , 1026.4 hPa
Clouds: Overcast
Visibility: 10 miles , 16 km
Cloud details: Mostly cloudy 2500 ft
Overcast 6500 ft
2020/02/18 13:53 KPOU 181353Z 12009G14KT 10SM BKN025 OVC065 02/M05 A3031 RMK AO2 SLP262 T00221050
KBDL - Windsor Locks, Connecticut, USA
Distance from station: NE 38mi, 62km
Updated: Tue, 18-Feb-2020 8:51am EST
Overcast
Overcast
 Wind from N
Wind: N 5 mph , 7 km/h
Temperature: 32°F , 0°C
Wind Chill: 27°F , -3°C
Dew Point: 18°F , -8°C
Humidity: 55%
Barometer: 30.38 inHg , 1028.8 hPa
Clouds: Overcast
Visibility: 10 miles , 16 km
Cloud details: Few Clouds 2700 ft
Mostly cloudy 9000 ft
Overcast 13000 ft
2020/02/18 13:51 KBDL 181351Z 36004KT 10SM FEW027 BKN090 OVC130 00/M08 A3038 RMK AO2 SLP290 T00001078
 
KSNC - Chester, Connecticut, USA
Distance from station: ESE 39mi, 63km
Updated: Tue, 18-Feb-2020 8:55am EST
Mostly cloudy
Mostly cloudy
 Wind from varies
Wind: varies 6 mph , 9 km/h
Temperature: 36°F , 2°C
Wind Chill: 31°F , -1°C
Dew Point: 25°F , -4°C
Humidity: 65%
Barometer: 30.35 inHg , 1027.8 hPa
Clouds: Mostly cloudy
Visibility: 10 miles , 16 km
Cloud details: Mostly cloudy 2100 ft
2020/02/18 13:55 KSNC 181355Z AUTO VRB05KT 10SM BKN021 02/M04 A3035 RMK AO2
KHPN - White Plains, New York, USA
Distance from station: SW 42mi, 67km
Updated: Tue, 18-Feb-2020 8:56am EST
Overcast
Overcast
 Wind from E
Wind: E 9 mph , 15 km/h
Temperature: 37°F , 3°C
Wind Chill: 30°F , -1°C
Dew Point: 30°F , -1°C
Humidity: 75%
Barometer: 30.30 inHg , 1026.1 hPa
Clouds: Overcast
Visibility: 10 miles , 16 km
Cloud details: Overcast 1800 ft
2020/02/18 13:56 KHPN 181356Z 10008KT 10SM OVC018 03/M01 A3030 RMK AO2 SLP267 T00281011
 
KSWF - Newburgh/Stewart, New York, USA
Distance from station: W 45mi, 72km
Updated: Tue, 18-Feb-2020 8:45am EST
Overcast
Overcast
 Wind from ESE
Wind: ESE 14 mph , 22 km/h
Temperature: 36°F , 2°C
Wind Chill: 27°F , -3°C
Dew Point: 28°F , -2°C
Humidity: 75%
Barometer: 30.30 inHg , 1026.1 hPa
Clouds: Overcast
Visibility: 8 miles , 13 km
Cloud details: Overcast 2000 ft
2020/02/18 13:45 KSWF 181345Z 11012KT 8SM OVC020 02/M02 A3030
KBAF - Westfield, Massachusetts, USA
Distance from station: NNE 50mi, 80km
Updated: Tue, 18-Feb-2020 9:04am EST
Overcast
Overcast
 Wind from NNE
Wind: NNE 3 mph , 6 km/h
Temperature: 32°F , 0°C
Dew Point: 18°F , -8°C
Humidity: 55%
Barometer: 30.38 inHg , 1028.8 hPa
Clouds: Overcast
Visibility: 10 miles , 16 km
Cloud details: Mostly cloudy 2900 ft
Mostly cloudy 8500 ft
Overcast 10000 ft
2020/02/18 14:04 KBAF 181404Z 02003KT 10SM BKN029 BKN085 OVC100 00/M08 A3038 RMK AO2 T00001078